Time;durP1;ratioP1;P1;durP2;ratioP2;P2;SDS_P1;SDS_P2;PMS_P1;PMS_P2;Temp;Humidity;BMP_temperature;BMP_pressure;BME280_temperature;BME280_humidity;BME280_pressure;Samples;Min_cycle;Max_cycle;Signal;HPM_P1;HPM_P2
2024/03/19 00:02:01;;;;;;;20.63;13.37;;;;;;;8.79;100.00;98290.41;4975644;28;20363;-77
2024/03/19 00:04:28;;;;;;;24.27;13.43;;;;;;;8.73;100.00;98296.03;4976218;28;20236;-77
2024/03/19 00:06:55;;;;;;;22.93;12.83;;;;;;;8.73;100.00;98290.78;4975738;28;20689;-77
2024/03/19 00:09:22;;;;;;;23.23;13.53;;;;;;;8.67;100.00;98295.53;4975578;28;20218;-77
2024/03/19 00:11:48;;;;;;;26.23;14.77;;;;;;;8.65;100.00;98294.78;4975584;28;20559;-77
2024/03/19 00:14:15;;;;;;;22.53;14.07;;;;;;;8.70;100.00;98295.38;4976332;28;20205;-77
2024/03/19 00:16:41;;;;;;;27.10;14.83;;;;;;;8.85;100.00;98299.72;4975913;28;20219;-77
2024/03/19 00:19:08;;;;;;;29.20;15.40;;;;;;;8.85;100.00;98294.44;4975707;28;20585;-77
2024/03/19 00:21:36;;;;;;;22.90;14.03;;;;;;;8.84;100.00;98303.31;4975204;28;20238;-77
2024/03/19 00:24:03;;;;;;;23.57;13.83;;;;;;;8.85;100.00;98307.63;4975400;28;20234;-77
2024/03/19 00:26:30;;;;;;;21.80;13.40;;;;;;;8.90;100.00;98305.56;4975410;28;20677;-77
2024/03/19 00:28:56;;;;;;;21.90;13.23;;;;;;;8.80;100.00;98314.97;4975702;28;20320;-77
2024/03/19 00:31:23;;;;;;;23.80;14.17;;;;;;;8.72;100.00;98315.44;4975114;28;20229;-77
2024/03/19 00:33:50;;;;;;;21.60;14.43;;;;;;;8.70;100.00;98308.56;4975972;28;20554;-76
2024/03/19 00:36:17;;;;;;;25.47;14.03;;;;;;;8.69;100.00;98312.13;4975174;28;20208;-77
2024/03/19 00:38:45;;;;;;;25.00;13.57;;;;;;;8.68;100.00;98307.78;4975651;28;20214;-76
2024/03/19 00:41:11;;;;;;;20.40;13.03;;;;;;;8.62;100.00;98309.00;4975178;28;20236;-77
2024/03/19 00:43:38;;;;;;;17.70;11.90;;;;;;;8.49;100.00;98317.69;4975179;28;20245;-77
2024/03/19 00:46:05;;;;;;;18.67;11.07;;;;;;;8.30;100.00;98311.78;4975178;28;20637;-77
2024/03/19 00:48:31;;;;;;;19.17;11.57;;;;;;;8.14;100.00;98313.59;4975022;28;20336;-77
2024/03/19 00:50:58;;;;;;;16.27;10.67;;;;;;;8.03;100.00;98315.97;4973823;28;20628;-77
2024/03/19 00:53:24;;;;;;;17.77;11.00;;;;;;;7.96;100.00;98309.34;4975232;28;20192;-77
2024/03/19 00:55:52;;;;;;;19.20;11.47;;;;;;;7.91;100.00;98303.50;4975147;28;20212;-77
2024/03/19 00:58:19;;;;;;;17.57;12.63;;;;;;;7.89;100.00;98310.63;4975133;28;20215;-77
2024/03/19 01:00:46;;;;;;;19.57;11.60;;;;;;;7.84;100.00;98307.41;4974523;28;20607;-77
2024/03/19 01:03:14;;;;;;;20.83;12.20;;;;;;;7.77;100.00;98300.78;4974662;28;20242;-77
2024/03/19 01:05:40;;;;;;;20.00;11.93;;;;;;;7.71;100.00;98303.75;4974530;28;20226;-77
2024/03/19 01:08:07;;;;;;;21.47;11.60;;;;;;;7.71;100.00;98296.69;4974967;28;20634;-77
2024/03/19 01:10:35;;;;;;;20.70;12.97;;;;;;;7.72;100.00;98298.38;4974556;28;20235;-77
2024/03/19 01:13:03;;;;;;;22.93;12.27;;;;;;;7.66;100.00;98300.53;4975264;28;20707;-77
2024/03/19 01:15:30;;;;;;;19.20;11.47;;;;;;;7.63;100.00;98298.03;4974985;28;20247;-77
2024/03/19 01:17:56;;;;;;;19.73;11.57;;;;;;;7.60;100.00;98292.97;4975197;28;20243;-76
2024/03/19 01:20:23;;;;;;;21.63;12.67;;;;;;;7.58;100.00;98286.91;4974219;28;20260;-76
2024/03/19 01:22:49;;;;;;;18.77;11.17;;;;;;;7.58;100.00;98285.16;4974586;28;20583;-76
2024/03/19 01:25:17;;;;;;;15.87;11.33;;;;;;;7.62;100.00;98291.09;4974603;28;20207;-77
2024/03/19 01:27:44;;;;;;;18.03;11.27;;;;;;;7.62;100.00;98291.09;4974475;28;20575;-77
2024/03/19 01:30:12;;;;;;;18.47;11.83;;;;;;;7.59;100.00;98286.84;4974169;28;20216;-77
2024/03/19 01:32:39;;;;;;;16.43;11.03;;;;;;;7.55;100.00;98284.47;4973914;28;20261;-76
2024/03/19 01:35:06;;;;;;;19.40;11.27;;;;;;;7.59;100.00;98286.00;4974215;28;20307;-76
2024/03/19 01:37:32;;;;;;;17.87;11.53;;;;;;;7.57;100.00;98288.72;4974809;28;20226;-77
2024/03/19 01:39:58;;;;;;;19.40;11.43;;;;;;;7.55;100.00;98284.47;4974614;28;20217;-77
2024/03/19 01:42:25;;;;;;;18.77;11.60;;;;;;;7.60;100.00;98277.19;4973772;28;20234;-77
2024/03/19 01:45:08;;;;;;;17.70;11.07;;;;;;;7.61;100.00;98277.13;4973883;28;20230;-77
2024/03/19 01:47:36;;;;;;;21.07;11.77;;;;;;;7.58;100.00;98276.41;4973905;28;20296;-77
2024/03/19 01:50:05;;;;;;;22.33;12.13;;;;;;;7.62;100.00;98273.53;4974013;28;20270;-78
2024/03/19 01:52:32;;;;;;;21.63;12.33;;;;;;;7.68;100.00;98277.59;4973489;28;20322;-77
2024/03/19 01:54:59;;;;;;;20.80;13.10;;;;;;;7.70;100.00;98275.72;4973845;28;20215;-76
2024/03/19 01:57:26;;;;;;;23.97;13.50;;;;;;;7.77;100.00;98274.47;4973775;28;20213;-77
2024/03/19 01:59:52;;;;;;;21.90;12.83;;;;;;;7.67;100.00;98268.88;4973524;28;20597;-77
2024/03/19 02:02:31;;;;;;;21.47;12.00;;;;;;;7.63;100.00;98277.00;4972550;28;20236;-77
2024/03/19 02:05:00;;;;;;;24.30;12.73;;;;;;;7.63;100.00;98271.75;4973562;28;20664;-77
2024/03/19 02:07:26;;;;;;;18.73;11.57;;;;;;;7.63;100.00;98271.75;4973383;28;20667;-77
2024/03/19 02:09:55;;;;;;;21.00;11.93;;;;;;;7.57;100.00;98277.34;4973355;28;20242;-77
2024/03/19 02:12:21;;;;;;;19.97;11.93;;;;;;;7.51;100.00;98272.41;4972882;28;20788;-76
2024/03/19 02:14:48;;;;;;;18.83;10.93;;;;;;;7.47;100.00;98265.66;4973520;28;20587;-77
2024/03/19 02:17:14;;;;;;;19.00;12.23;;;;;;;7.43;100.00;98264.09;4973212;28;20216;-77
2024/03/19 02:19:41;;;;;;;18.77;12.33;;;;;;;7.40;100.00;98264.25;4973219;28;20269;-77
2024/03/19 02:22:09;;;;;;;21.27;12.37;;;;;;;7.42;100.00;98252.72;4972780;28;20228;-77
2024/03/19 02:24:38;;;;;;;22.60;12.77;;;;;;;7.44;100.00;98260.53;4973491;28;20242;-76
2024/03/19 02:27:05;;;;;;;25.73;14.57;;;;;;;7.42;100.00;98257.16;4973043;28;20572;-77
2024/03/19 02:29:30;;;;;;;28.20;14.33;;;;;;;7.41;100.00;98255.47;4973244;28;20218;-77
2024/03/19 02:31:57;;;;;;;23.80;14.80;;;;;;;7.47;100.00;98257.75;4972700;28;20228;-76
2024/03/19 02:34:23;;;;;;;20.57;13.03;;;;;;;7.52;100.00;98253.06;4973075;28;20587;-77
2024/03/19 02:36:50;;;;;;;18.60;11.17;;;;;;;7.52;100.00;98258.31;4972969;28;20210;-77
2024/03/19 02:39:17;;;;;;;17.60;11.40;;;;;;;7.43;100.00;98264.97;4972998;28;20216;-77
2024/03/19 02:41:45;;;;;;;16.43;10.77;;;;;;;7.46;100.00;98261.28;4972620;28;20262;-78
2024/03/19 02:44:12;;;;;;;16.47;11.60;;;;;;;7.44;100.00;98255.28;4972951;28;20239;-77
2024/03/19 02:46:38;;;;;;;16.80;10.93;;;;;;;7.43;100.00;98250.97;4973034;28;20353;-77
2024/03/19 02:49:05;;;;;;;16.47;11.17;;;;;;;7.43;100.00;98245.69;4972973;28;20232;-78
2024/03/19 02:51:31;;;;;;;17.00;11.10;;;;;;;7.44;100.00;98244.75;4972287;28;20247;-77
2024/03/19 02:53:58;;;;;;;17.10;11.43;;;;;;;7.47;100.00;98239.34;4972655;28;20207;-77
2024/03/19 02:56:25;;;;;;;17.53;11.43;;;;;;;7.52;100.00;98248.66;4972694;28;20271;-77
2024/03/19 02:58:53;;;;;;;19.13;11.93;;;;;;;7.61;100.00;98242.91;4972665;28;20301;-77
2024/03/19 03:01:19;;;;;;;17.10;11.53;;;;;;;7.66;100.00;98247.91;4972272;28;20240;-77
2024/03/19 03:03:46;;;;;;;17.33;11.60;;;;;;;7.64;100.00;98242.72;4972659;28;20238;-77
2024/03/19 03:06:12;;;;;;;16.43;10.43;;;;;;;7.66;100.00;98247.91;4972664;28;20595;-77
2024/03/19 03:08:39;;;;;;;20.83;11.93;;;;;;;7.69;100.00;98256.47;4972564;28;20226;-78
2024/03/19 03:11:05;;;;;;;22.80;12.93;;;;;;;7.73;100.00;98251.91;4972262;28;20714;-76
2024/03/19 03:13:32;;;;;;;19.10;12.13;;;;;;;7.75;100.00;98250.03;4972334;28;20226;-79
2024/03/19 03:16:00;;;;;;;23.47;13.67;;;;;;;7.76;100.00;98256.97;4972674;28;20214;-77
2024/03/19 03:18:26;;;;;;;29.37;14.80;;;;;;;7.77;100.00;98253.44;4972505;28;20222;-77
2024/03/19 03:20:53;;;;;;;22.27;13.10;;;;;;;7.81;100.00;98254.94;4972706;28;20231;-77
2024/03/19 03:23:19;;;;;;;24.10;14.30;;;;;;;7.84;100.00;98252.16;4972297;28;20208;-77
2024/03/19 03:25:46;;;;;;;26.73;15.03;;;;;;;7.86;100.00;98252.91;4972770;28;20207;-76
2024/03/19 03:28:13;;;;;;;26.17;14.43;;;;;;;7.88;100.00;98262.41;4972557;28;20211;-78
2024/03/19 03:30:41;;;;;;;26.30;15.53;;;;;;;7.93;100.00;98260.38;4972325;28;20227;-76
2024/03/19 03:33:08;;;;;;;29.50;16.30;;;;;;;7.97;100.00;98258.41;4972667;28;20584;-76
2024/03/19 03:35:35;;;;;;;30.07;16.23;;;;;;;7.99;100.00;98261.78;4972694;28;20206;-76
2024/03/19 03:38:01;;;;;;;29.27;16.17;;;;;;;8.04;100.00;98257.13;4972821;28;20213;-76
2024/03/19 03:40:29;;;;;;;25.83;14.77;;;;;;;8.05;100.00;98254.41;4972306;28;20240;-75
2024/03/19 03:42:55;;;;;;;25.37;14.40;;;;;;;8.04;100.00;98251.84;4973054;28;20550;-76
2024/03/19 03:45:22;;;;;;;22.93;13.77;;;;;;;8.06;100.00;98249.97;4973428;28;20242;-76
2024/03/19 03:47:49;;;;;;;23.20;14.63;;;;;;;8.02;100.00;98253.75;4972864;28;20207;-76
2024/03/19 03:50:17;;;;;;;25.93;15.30;;;;;;;8.02;100.00;98248.47;4972343;28;20212;-76
2024/03/19 03:52:45;;;;;;;24.67;13.67;;;;;;;8.02;100.00;98259.84;4972679;28;20208;-76
2024/03/19 03:55:12;;;;;;;24.20;14.20;;;;;;;8.00;100.00;98251.19;4972886;28;20218;-76
2024/03/19 03:57:40;;;;;;;25.27;14.47;;;;;;;8.01;100.00;98252.00;4972588;28;20212;-76
2024/03/19 04:00:09;;;;;;;22.37;12.83;;;;;;;8.00;100.00;98255.59;4972170;28;20734;-76
2024/03/19 04:02:36;;;;;;;19.03;12.23;;;;;;;7.95;100.00;98257.66;4972494;28;20240;-76
2024/03/19 04:05:03;;;;;;;20.13;12.90;;;;;;;7.92;100.00;98261.31;4972412;28;20259;-76
2024/03/19 04:07:31;;;;;;;19.53;13.00;;;;;;;7.91;100.00;98258.75;4971514;28;20218;-78
2024/03/19 04:09:57;;;;;;;18.67;12.30;;;;;;;7.89;100.00;98258.84;4972481;28;20208;-76
2024/03/19 04:12:24;;;;;;;21.23;13.07;;;;;;;7.88;100.00;98266.81;4972514;28;20233;-78
2024/03/19 04:14:50;;;;;;;24.03;13.37;;;;;;;7.89;100.00;98264.09;4972823;28;20229;-76
2024/03/19 04:17:17;;;;;;;19.17;11.60;;;;;;;7.89;100.00;98263.28;4972778;28;20222;-77
2024/03/19 04:19:44;;;;;;;21.23;12.57;;;;;;;7.91;100.00;98271.91;4972593;28;20220;-77
2024/03/19 04:22:10;;;;;;;20.30;11.80;;;;;;;7.94;100.00;98269.09;4972175;28;20659;-77
2024/03/19 04:24:38;;;;;;;19.13;12.47;;;;;;;7.96;100.00;98275.97;4972518;28;20242;-76
2024/03/19 04:27:05;;;;;;;23.07;12.60;;;;;;;7.98;100.00;98273.25;4975264;28;20586;-77
2024/03/19 04:29:31;;;;;;;21.43;11.83;;;;;;;7.94;100.00;98272.59;4975905;28;20220;-76
2024/03/19 04:31:58;;;;;;;19.80;11.63;;;;;;;7.96;100.00;98280.41;4975258;28;20227;-77
2024/03/19 04:34:24;;;;;;;19.67;12.53;;;;;;;7.93;100.00;98280.56;4976098;28;20214;-76
2024/03/19 04:36:51;;;;;;;20.47;12.33;;;;;;;7.89;100.00;98274.63;4975501;28;20693;-77
2024/03/19 04:39:17;;;;;;;19.27;12.37;;;;;;;7.90;100.00;98280.75;4975716;28;20267;-76
2024/03/19 04:41:47;;;;;;;20.73;12.87;;;;;;;7.87;100.00;98275.66;4975216;28;20323;-76
2024/03/19 04:44:14;;;;;;;22.63;12.33;;;;;;;7.92;100.00;98278.88;4974178;28;20233;-76
2024/03/19 04:46:41;;;;;;;17.80;12.33;;;;;;;7.92;100.00;98279.72;4975615;28;20208;-76
2024/03/19 04:49:07;;;;;;;18.90;12.10;;;;;;;7.91;100.00;98270.13;4975413;28;20212;-77
2024/03/19 04:51:34;;;;;;;19.23;11.67;;;;;;;7.90;100.00;98270.22;4975010;28;20326;-77
2024/03/19 04:54:01;;;;;;;20.93;11.80;;;;;;;7.88;100.00;98272.94;4975427;28;20281;-77
2024/03/19 04:56:27;;;;;;;20.50;12.10;;;;;;;7.96;100.00;98270.72;4975348;28;20213;-76
2024/03/19 04:58:55;;;;;;;18.27;11.50;;;;;;;7.85;100.00;98272.25;4975114;28;20217;-77
2024/03/19 05:01:21;;;;;;;18.83;12.00;;;;;;;7.82;100.00;98273.28;4974648;28;20250;-77
2024/03/19 05:03:49;;;;;;;18.53;11.63;;;;;;;7.88;100.00;98266.81;4974689;28;20215;-77
2024/03/19 05:06:16;;;;;;;17.10;11.17;;;;;;;7.84;100.00;98270.56;4974925;28;20259;-77
2024/03/19 05:08:43;;;;;;;18.30;11.03;;;;;;;7.79;100.00;98272.59;4975038;28;20600;-77
2024/03/19 05:11:10;;;;;;;17.20;11.07;;;;;;;7.78;100.00;98271.75;4974144;28;20238;-77
2024/03/19 05:13:37;;;;;;;18.73;10.90;;;;;;;7.81;100.00;98275.97;4974420;28;20211;-78
2024/03/19 05:16:06;;;;;;;15.97;10.33;;;;;;;7.73;100.00;98286.09;4974780;28;20212;-77
2024/03/19 05:18:32;;;;;;;17.47;10.13;;;;;;;7.67;100.00;98283.81;4974901;28;20207;-77
2024/03/19 05:20:59;;;;;;;15.70;10.47;;;;;;;7.62;100.00;98285.84;4974592;28;20734;-77
2024/03/19 05:23:25;;;;;;;16.57;10.67;;;;;;;7.56;100.00;98287.03;4973091;28;20206;-77
2024/03/19 05:25:52;;;;;;;15.07;9.93;;;;;;;7.60;100.00;98285.91;4973980;28;20236;-77
2024/03/19 05:28:18;;;;;;;19.17;11.90;;;;;;;7.66;100.00;98288.19;4974177;28;20217;-77
2024/03/19 05:30:45;;;;;;;20.50;11.90;;;;;;;7.70;100.00;98283.63;4974010;28;20628;-78
2024/03/19 05:33:14;;;;;;;17.37;11.43;;;;;;;7.69;100.00;98279.28;4974428;28;20299;-78
2024/03/19 05:35:41;;;;;;;17.77;11.27;;;;;;;7.67;100.00;98283.81;4974548;28;20210;-77
2024/03/19 05:38:08;;;;;;;19.20;11.27;;;;;;;7.64;100.00;98287.44;4974092;28;20215;-77
2024/03/19 05:40:35;;;;;;;16.37;10.60;;;;;;;7.62;100.00;98291.09;4973682;28;20325;-78
2024/03/19 05:43:02;;;;;;;17.60;11.43;;;;;;;7.61;100.00;98294.66;4973887;28;20211;-77
2024/03/19 05:45:30;;;;;;;20.13;11.57;;;;;;;7.63;100.00;98298.03;4974214;28;20314;-78
2024/03/19 05:47:57;;;;;;;18.03;11.23;;;;;;;7.67;100.00;98291.69;4973969;28;20215;-77
2024/03/19 05:50:25;;;;;;;17.67;11.63;;;;;;;7.68;100.00;98301.28;4973806;28;20282;-77
2024/03/19 05:52:51;;;;;;;17.70;11.57;;;;;;;7.68;100.00;98296.03;4974101;28;20214;-78
2024/03/19 05:55:18;;;;;;;19.00;11.23;;;;;;;7.70;100.00;98300.25;4974058;28;20219;-78
2024/03/19 05:57:45;;;;;;;19.63;11.50;;;;;;;7.69;100.00;98295.06;4974066;28;20208;-78
2024/03/19 06:00:13;;;;;;;17.10;10.53;;;;;;;7.68;100.00;98290.75;4974007;28;20587;-77
2024/03/19 06:02:40;;;;;;;17.30;11.60;;;;;;;7.71;100.00;98295.88;4973753;28;20307;-77
2024/03/19 06:05:09;;;;;;;23.53;12.37;;;;;;;7.74;100.00;98298.31;4973792;28;20233;-78
2024/03/19 06:07:36;;;;;;;18.27;10.77;;;;;;;7.72;100.00;98297.56;4973574;28;20221;-77
2024/03/19 06:10:03;;;;;;;20.83;12.70;;;;;;;7.70;100.00;98300.25;4974314;28;20214;-77
2024/03/19 06:12:30;;;;;;;22.47;12.97;;;;;;;7.67;100.00;98292.56;4973300;28;20210;-77
2024/03/19 06:14:56;;;;;;;19.83;12.23;;;;;;;7.73;100.00;98304.50;4973482;28;20203;-78
2024/03/19 06:17:23;;;;;;;21.10;13.20;;;;;;;7.71;100.00;98298.50;4973399;28;20215;-78
2024/03/19 06:19:49;;;;;;;19.07;12.37;;;;;;;7.68;100.00;98301.28;4973446;28;20214;-77
2024/03/19 06:22:16;;;;;;;21.53;12.87;;;;;;;7.68;100.00;98306.53;4973128;28;20234;-77
2024/03/19 06:24:44;;;;;;;22.30;13.90;;;;;;;7.71;100.00;98312.47;4973184;28;20246;-77
2024/03/19 06:27:10;;;;;;;25.23;13.73;;;;;;;7.79;100.00;98315.53;4973314;28;20217;-77
2024/03/19 06:29:37;;;;;;;25.90;15.30;;;;;;;7.84;100.00;98326.66;4973311;28;20223;-77
2024/03/19 06:32:04;;;;;;;23.93;13.53;;;;;;;7.86;100.00;98318.69;4973041;28;20235;-78
2024/03/19 06:34:30;;;;;;;24.83;13.93;;;;;;;7.90;100.00;98318.41;4973422;28;20218;-78
2024/03/19 06:36:57;;;;;;;24.53;14.47;;;;;;;8.02;100.00;98324.81;4973040;28;20212;-78
2024/03/19 06:39:24;;;;;;;26.10;14.40;;;;;;;8.07;100.00;98335.91;4973282;28;20215;-78
2024/03/19 06:41:52;;;;;;;28.50;15.10;;;;;;;8.16;100.00;98330.13;4972821;28;20239;-78
2024/03/19 06:44:19;;;;;;;25.43;15.27;;;;;;;8.15;100.00;98324.00;4973564;28;20220;-77
2024/03/19 06:46:46;;;;;;;24.20;14.97;;;;;;;8.12;100.00;98324.19;4973235;28;20231;-77
2024/03/19 06:49:13;;;;;;;24.23;14.73;;;;;;;8.21;100.00;98328.97;4973903;28;20210;-77
2024/03/19 06:51:40;;;;;;;22.83;14.07;;;;;;;8.22;100.00;98324.56;4972362;28;20240;-78
2024/03/19 06:54:06;;;;;;;22.73;13.47;;;;;;;8.21;100.00;98333.41;4972837;28;20212;-78
2024/03/19 06:56:33;;;;;;;20.93;12.70;;;;;;;8.20;100.00;98334.34;4972758;28;20212;-78
2024/03/19 06:59:01;;;;;;;16.50;11.37;;;;;;;8.12;100.00;98339.13;4972927;28;20212;-77
2024/03/19 07:01:28;;;;;;;18.63;11.67;;;;;;;8.12;100.00;98342.63;4972338;28;20233;-77
2024/03/19 07:03:54;;;;;;;15.90;11.17;;;;;;;8.11;100.00;98343.56;4972503;28;20216;-77
2024/03/19 07:06:21;;;;;;;18.63;11.37;;;;;;;8.14;100.00;98340.75;4972866;28;20233;-78
2024/03/19 07:08:53;;;;;;;17.47;11.30;;;;;;;8.16;100.00;98340.66;4972527;28;20223;-77
2024/03/19 07:11:19;;;;;;;18.40;12.30;;;;;;;8.21;100.00;98346.56;4972373;28;20607;-77
2024/03/19 07:13:46;;;;;;;19.00;12.37;;;;;;;8.26;100.00;98344.53;4972509;28;20631;-77
2024/03/19 07:16:14;;;;;;;20.57;12.83;;;;;;;8.44;100.00;98346.09;4972533;28;20207;-78
2024/03/19 07:18:41;;;;;;;23.70;14.07;;;;;;;8.62;100.00;98345.88;4972371;28;20220;-77
2024/03/19 07:21:07;;;;;;;25.10;14.93;;;;;;;8.78;100.00;98345.84;4972121;28;20227;-78
2024/03/19 07:23:35;;;;;;;28.43;12.97;;;;;;;8.90;100.00;98342.47;4972907;28;20215;-78
2024/03/19 07:26:01;;;;;;;21.23;12.77;;;;;;;9.17;100.00;98352.22;4973786;28;20260;-79
2024/03/19 07:28:28;;;;;;;23.03;14.80;;;;;;;9.48;100.00;98351.22;4973234;28;20209;-77
2024/03/19 07:30:54;;;;;;;24.70;15.20;;;;;;;9.62;100.00;98346.78;4971832;28;20587;-76
2024/03/19 07:33:22;;;;;;;23.47;14.23;;;;;;;9.69;100.00;98344.63;4972445;28;20224;-77
2024/03/19 07:35:49;;;;;;;19.10;13.10;;;;;;;9.87;100.00;98346.09;4972624;28;20217;-78
2024/03/19 07:38:15;;;;;;;20.07;13.20;;;;;;;9.98;100.00;98352.38;4973718;28;20223;-78
2024/03/19 07:40:42;;;;;;;19.17;12.97;;;;;;;10.13;100.00;98359.38;4973902;28;20234;-78
2024/03/19 07:43:08;;;;;;;21.60;13.30;;;;;;;10.19;100.00;98358.13;4974342;28;20212;-78
2024/03/19 07:45:36;;;;;;;17.37;11.63;;;;;;;10.29;100.00;98359.25;4975203;28;20653;-79
2024/03/19 07:48:04;;;;;;;16.37;11.80;;;;;;;10.40;100.00;98362.06;4975135;28;20250;-78
2024/03/19 07:50:34;;;;;;;15.30;11.13;;;;;;;10.48;100.00;98365.03;4974124;28;20260;-79
2024/03/19 07:53:01;;;;;;;14.40;10.20;;;;;;;10.59;100.00;98373.13;4974625;28;20595;-78
2024/03/19 07:55:28;;;;;;;13.17;9.20;;;;;;;10.68;100.00;98380.44;4973913;28;20207;-78
2024/03/19 07:57:54;;;;;;;11.73;9.13;;;;;;;10.79;100.00;98380.56;4974395;28;20213;-77
2024/03/19 08:00:21;;;;;;;11.50;8.57;;;;;;;10.87;100.00;98383.56;4973256;28;20302;-77
2024/03/19 08:02:48;;;;;;;10.80;8.30;;;;;;;10.94;100.00;98392.81;4978260;28;20220;-78
2024/03/19 08:05:14;;;;;;;9.53;7.47;;;;;;;10.98;100.00;98399.56;4976939;28;20608;-78
2024/03/19 08:07:43;;;;;;;10.90;7.90;;;;;;;11.07;100.00;98391.03;4979502;28;20216;-78
2024/03/19 08:10:10;;;;;;;8.80;7.20;;;;;;;11.15;100.00;98399.28;4979346;28;20225;-78
2024/03/19 08:12:37;;;;;;;10.60;7.13;;;;;;;11.17;100.00;98402.66;4977568;28;20280;-77
2024/03/19 08:15:05;;;;;;;9.47;7.47;;;;;;;11.21;100.00;98406.81;4975771;28;20208;-78
2024/03/19 08:17:32;;;;;;;8.23;6.80;;;;;;;11.26;100.00;98402.06;4973756;28;20226;-78
2024/03/19 08:19:59;;;;;;;10.17;7.57;;;;;;;11.23;100.00;98415.47;4974898;28;20275;-78
2024/03/19 08:22:26;;;;;;;9.17;6.33;;;;;;;11.20;100.00;98418.34;4979688;28;20240;-80
2024/03/19 08:24:53;;;;;;;8.43;6.43;;;;;;;11.23;100.00;98424.28;4985415;28;20206;-80
2024/03/19 08:27:20;;;;;;;7.87;6.40;;;;;;;11.33;100.00;98425.38;4987317;28;20234;-79
2024/03/19 08:29:47;;;;;;;8.53;6.37;;;;;;;11.46;100.00;98428.00;4988387;28;20223;-79
2024/03/19 08:32:13;;;;;;;9.70;7.00;;;;;;;11.69;100.00;98424.69;4986568;28;20313;-80
2024/03/19 08:34:40;;;;;;;10.60;6.47;;;;;;;11.92;100.00;98426.59;4983647;28;20988;-82
2024/03/19 08:37:06;;;;;;;8.53;6.57;;;;;;;12.12;100.00;98431.31;4984996;28;20209;-79
2024/03/19 08:39:33;;;;;;;9.07;6.77;;;;;;;12.28;100.00;98430.13;4983574;28;20662;-83
2024/03/19 08:42:01;;;;;;;8.73;6.93;;;;;;;12.34;100.00;98432.34;4978991;28;20242;-82
2024/03/19 08:44:28;;;;;;;8.10;6.30;;;;;;;12.43;100.00;98430.84;4983262;28;20214;-83
2024/03/19 08:46:54;;;;;;;6.90;5.73;;;;;;;12.49;100.00;98430.41;4986698;28;20317;-83
2024/03/19 08:49:21;;;;;;;8.27;5.77;;;;;;;12.49;100.00;98435.69;4986691;28;20207;-82
2024/03/19 08:51:47;;;;;;;7.00;5.77;;;;;;;12.44;100.00;98435.19;4984171;28;20242;-84
2024/03/19 08:54:14;;;;;;;8.10;6.53;;;;;;;12.45;100.00;98428.91;4985011;28;20214;-84
2024/03/19 08:56:40;;;;;;;7.17;5.77;;;;;;;12.49;100.00;98428.59;4985735;28;20215;-80
2024/03/19 08:59:08;;;;;;;7.07;5.60;;;;;;;12.51;100.00;98429.31;4989294;28;20210;-81
2024/03/19 09:01:35;;;;;;;6.97;5.37;;;;;;;12.57;100.00;98422.72;4989627;28;20233;-82
2024/03/19 09:04:03;;;;;;;7.47;5.80;;;;;;;12.78;100.00;98431.78;4989024;28;20210;-82
2024/03/19 09:06:30;;;;;;;6.83;5.63;;;;;;;12.85;100.00;98422.41;4989203;28;20241;-81
2024/03/19 09:08:57;;;;;;;7.77;5.63;;;;;;;12.95;100.00;98424.31;4989225;28;20283;-83
2024/03/19 09:11:23;;;;;;;6.00;5.40;;;;;;;12.98;100.00;98420.56;4988487;28;20241;-81
2024/03/19 09:13:50;;;;;;;5.40;4.57;;;;;;;13.08;100.00;98419.78;4989653;28;20568;-81
2024/03/19 09:16:18;;;;;;;6.03;5.37;;;;;;;13.19;100.00;98416.31;4989457;28;20203;-82
2024/03/19 09:18:44;;;;;;;6.20;5.60;;;;;;;13.30;100.00;98419.00;4986587;28;20207;-81
2024/03/19 09:21:11;;;;;;;6.20;5.47;;;;;;;13.37;100.00;98418.44;4989664;28;20730;-81
2024/03/19 09:23:38;;;;;;;6.17;5.27;;;;;;;13.42;100.00;98424.25;4989726;28;20210;-82
2024/03/19 09:26:05;;;;;;;5.67;4.83;;;;;;;13.52;100.00;98419.09;4989727;28;20238;-80
2024/03/19 09:28:32;;;;;;;5.97;4.83;;;;;;;13.56;100.00;98421.38;4988935;28;20251;-80
2024/03/19 09:30:59;;;;;;;5.70;5.07;;;;;;;13.57;100.00;98427.53;4988460;28;20255;-81
2024/03/19 09:33:27;;;;;;;5.73;4.50;;;;;;;13.56;100.00;98421.38;4989651;28;20247;-82
2024/03/19 09:35:54;;;;;;;5.60;4.70;;;;;;;13.61;100.00;98428.97;4990223;28;20208;-81
2024/03/19 09:38:21;;;;;;;5.47;4.83;;;;;;;13.61;100.00;98418.34;4989471;28;20583;-82
2024/03/19 09:40:55;;;;;;;4.60;4.10;;;;;;;13.57;100.00;98412.44;4986966;28;20270;-81
2024/03/19 09:43:23;;;;;;;6.50;4.80;;;;;;;13.67;100.00;98418.75;4978696;28;20265;-78
2024/03/19 09:45:49;;;;;;;4.80;4.27;;;;;;;13.65;100.00;98409.19;4975581;28;20231;-80
2024/03/19 09:48:17;;;;;;;4.63;4.00;;;;;;;13.65;100.00;98414.50;4977723;28;20220;-83
2024/03/19 09:50:46;;;;;;;5.27;4.40;;;;;;;13.70;100.00;98422.97;4976750;28;20239;-83
2024/03/19 09:53:17;;;;;;;5.70;4.67;;;;;;;13.73;100.00;98417.41;4976584;28;20212;-83
2024/03/19 09:55:45;;;;;;;6.37;5.00;;;;;;;13.77;100.00;98421.53;4976454;28;20216;-83
2024/03/19 09:58:13;;;;;;;6.80;4.97;;;;;;;13.80;100.00;98418.63;4976313;28;20215;-83
2024/03/19 10:00:44;;;;;;;6.20;5.37;;;;;;;13.70;100.00;98415.84;4975393;28;20235;-83
2024/03/19 10:03:10;;;;;;;6.63;5.40;;;;;;;13.87;100.00;98426.00;4975773;28;20710;-83
2024/03/19 10:05:37;;;;;;;5.90;5.30;;;;;;;13.84;100.00;98412.97;4975793;28;20745;-83
2024/03/19 10:08:06;;;;;;;5.77;5.17;;;;;;;13.89;100.00;98424.09;4975871;28;20207;-83
2024/03/19 10:10:32;;;;;;;6.80;4.67;;;;;;;13.88;100.00;98424.22;4975290;28;20247;-84
2024/03/19 10:12:59;;;;;;;6.20;4.70;;;;;;;13.84;100.00;98415.63;4975676;28;20257;-83
2024/03/19 10:15:27;;;;;;;6.30;4.70;;;;;;;13.88;100.00;98410.94;4975434;28;20239;-85
2024/03/19 10:17:56;;;;;;;5.60;5.10;;;;;;;14.04;100.00;98422.03;4977014;28;20389;-85
2024/03/19 10:20:23;;;;;;;6.23;4.57;;;;;;;14.12;100.00;98415.16;4976909;28;20228;-84
2024/03/19 10:22:50;;;;;;;5.83;4.53;;;;;;;14.20;100.00;98393.31;4976521;28;20579;-84
2024/03/19 10:25:18;;;;;;;4.87;4.13;;;;;;;14.10;100.00;98392.31;4976471;28;20213;-83
2024/03/19 10:27:45;;;;;;;5.60;4.33;;;;;;;14.11;100.00;98402.84;4976999;28;20606;-82
2024/03/19 10:30:14;;;;;;;5.83;4.20;;;;;;;14.06;100.00;98404.19;4976997;28;20236;-83
2024/03/19 10:32:41;;;;;;;5.60;4.50;;;;;;;14.13;100.00;98389.44;4974840;28;20267;-85
2024/03/19 10:35:18;;;;;;;4.67;3.37;;;;;;;14.01;100.00;98379.78;4976135;28;20213;-84
2024/03/19 10:37:46;;;;;;;5.13;3.50;;;;;;;14.09;100.00;98377.34;4976722;28;20205;-84
2024/03/19 10:40:14;;;;;;;4.57;3.37;;;;;;;14.02;99.12;98370.81;4975700;28;20228;-83
2024/03/19 10:42:43;;;;;;;3.67;3.00;;;;;;;13.97;95.10;98352.59;4975685;28;20656;-84
2024/03/19 10:45:16;;;;;;;4.03;3.10;;;;;;;14.09;99.32;98380.00;4975067;28;20600;-83
2024/03/19 10:47:44;;;;;;;3.93;2.87;;;;;;;14.13;98.18;98368.16;4975035;28;20239;-83
2024/03/19 10:50:14;;;;;;;2.77;2.53;;;;;;;14.18;98.17;98368.66;4974617;28;20207;-84
2024/03/19 10:52:43;;;;;;;4.33;3.57;;;;;;;14.27;98.10;98365.28;4974837;28;20220;-83
2024/03/19 10:55:13;;;;;;;3.30;3.00;;;;;;;14.29;97.02;98358.88;4974896;28;20213;-83
2024/03/19 10:57:43;;;;;;;4.97;3.40;;;;;;;14.47;98.16;98362.69;4975061;28;20243;-83
2024/03/19 11:00:29;;;;;;;5.13;3.83;;;;;;;14.46;98.46;98371.66;4974867;28;20219;-84
2024/03/19 11:02:57;;;;;;;4.30;3.27;;;;;;;14.56;100.00;98377.06;4975428;28;20208;-80
2024/03/19 11:05:23;;;;;;;5.47;3.43;;;;;;;14.55;99.36;98375.38;4974158;28;20211;-85
2024/03/19 11:07:51;;;;;;;4.50;3.60;;;;;;;14.62;99.12;98376.56;4974020;28;20240;-84
2024/03/19 11:10:28;;;;;;;5.33;3.63;;;;;;;14.81;98.87;98379.41;4972891;28;20629;-83
2024/03/19 11:12:58;;;;;;;5.30;3.95;;;;;;;15.11;98.02;98374.22;4973182;28;20438;-84
2024/03/19 11:15:25;;;;;;;3.57;3.17;;;;;;;15.24;97.10;98366.88;4974532;28;20287;-84
2024/03/19 11:17:51;;;;;;;3.87;3.00;;;;;;;15.47;94.35;98355.16;4997124;28;20205;-82
2024/03/19 11:20:18;;;;;;;3.97;3.20;;;;;;;15.68;94.47;98358.63;4997646;28;20261;-86